sensor_id;sensor_type;location;lat;lon;timestamp;P1;durP1;ratioP1;P2;durP2;ratioP2
20855;SDS011;63058;49.424;8.420;2023-03-08T00:01:45;9.70;;;5.77;;
20855;SDS011;63058;49.424;8.420;2023-03-08T00:04:11;8.03;;;5.37;;
20855;SDS011;63058;49.424;8.420;2023-03-08T00:06:36;10.90;;;6.47;;
20855;SDS011;63058;49.424;8.420;2023-03-08T00:09:02;12.17;;;6.83;;
20855;SDS011;63058;49.424;8.420;2023-03-08T00:11:28;8.63;;;5.33;;
20855;SDS011;63058;49.424;8.420;2023-03-08T00:13:53;8.27;;;5.77;;
20855;SDS011;63058;49.424;8.420;2023-03-08T00:16:19;9.63;;;5.73;;
20855;SDS011;63058;49.424;8.420;2023-03-08T00:18:45;9.03;;;5.50;;
20855;SDS011;63058;49.424;8.420;2023-03-08T00:21:12;11.07;;;6.80;;
20855;SDS011;63058;49.424;8.420;2023-03-08T00:23:39;9.60;;;6.00;;
20855;SDS011;63058;49.424;8.420;2023-03-08T00:26:05;8.40;;;5.53;;
20855;SDS011;63058;49.424;8.420;2023-03-08T00:28:31;6.83;;;4.90;;
20855;SDS011;63058;49.424;8.420;2023-03-08T00:30:58;9.60;;;5.40;;
20855;SDS011;63058;49.424;8.420;2023-03-08T00:33:28;8.27;;;5.27;;
20855;SDS011;63058;49.424;8.420;2023-03-08T00:35:58;8.70;;;5.20;;
20855;SDS011;63058;49.424;8.420;2023-03-08T00:38:26;9.53;;;6.00;;
20855;SDS011;63058;49.424;8.420;2023-03-08T00:40:52;9.83;;;5.70;;
20855;SDS011;63058;49.424;8.420;2023-03-08T00:43:18;8.93;;;5.83;;
20855;SDS011;63058;49.424;8.420;2023-03-08T00:45:44;9.60;;;5.80;;
20855;SDS011;63058;49.424;8.420;2023-03-08T00:48:09;7.33;;;4.73;;
20855;SDS011;63058;49.424;8.420;2023-03-08T00:50:35;7.90;;;4.97;;
20855;SDS011;63058;49.424;8.420;2023-03-08T00:53:00;7.83;;;4.87;;
20855;SDS011;63058;49.424;8.420;2023-03-08T00:55:26;7.37;;;5.00;;
20855;SDS011;63058;49.424;8.420;2023-03-08T00:57:52;6.60;;;4.67;;
20855;SDS011;63058;49.424;8.420;2023-03-08T01:00:17;6.90;;;4.60;;
20855;SDS011;63058;49.424;8.420;2023-03-08T01:02:43;6.87;;;4.10;;
20855;SDS011;63058;49.424;8.420;2023-03-08T01:05:09;10.40;;;4.40;;
20855;SDS011;63058;49.424;8.420;2023-03-08T01:07:34;7.27;;;4.83;;
20855;SDS011;63058;49.424;8.420;2023-03-08T01:10:00;10.23;;;5.37;;
20855;SDS011;63058;49.424;8.420;2023-03-08T01:12:30;6.70;;;4.50;;
20855;SDS011;63058;49.424;8.420;2023-03-08T01:14:56;7.73;;;4.60;;
20855;SDS011;63058;49.424;8.420;2023-03-08T01:17:22;6.93;;;4.53;;
20855;SDS011;63058;49.424;8.420;2023-03-08T01:19:48;6.50;;;4.40;;
20855;SDS011;63058;49.424;8.420;2023-03-08T01:22:14;6.90;;;4.43;;
20855;SDS011;63058;49.424;8.420;2023-03-08T01:24:43;8.20;;;5.47;;
20855;SDS011;63058;49.424;8.420;2023-03-08T01:27:09;7.53;;;5.03;;
20855;SDS011;63058;49.424;8.420;2023-03-08T01:29:35;8.17;;;4.50;;
20855;SDS011;63058;49.424;8.420;2023-03-08T01:32:01;8.67;;;5.53;;
20855;SDS011;63058;49.424;8.420;2023-03-08T01:34:26;7.47;;;4.70;;
20855;SDS011;63058;49.424;8.420;2023-03-08T01:36:52;8.37;;;5.60;;
20855;SDS011;63058;49.424;8.420;2023-03-08T01:39:18;10.03;;;5.47;;
20855;SDS011;63058;49.424;8.420;2023-03-08T01:41:43;7.27;;;4.87;;
20855;SDS011;63058;49.424;8.420;2023-03-08T01:44:16;6.70;;;4.80;;
20855;SDS011;63058;49.424;8.420;2023-03-08T01:46:43;6.27;;;4.23;;
20855;SDS011;63058;49.424;8.420;2023-03-08T01:54:35;6.20;;;4.33;;
20855;SDS011;63058;49.424;8.420;2023-03-08T01:57:19;6.97;;;4.57;;
20855;SDS011;63058;49.424;8.420;2023-03-08T01:59:47;8.40;;;5.20;;
20855;SDS011;63058;49.424;8.420;2023-03-08T02:02:16;8.77;;;5.40;;
20855;SDS011;63058;49.424;8.420;2023-03-08T02:04:45;6.47;;;4.50;;
20855;SDS011;63058;49.424;8.420;2023-03-08T02:07:11;6.20;;;4.53;;
20855;SDS011;63058;49.424;8.420;2023-03-08T02:09:37;6.73;;;4.83;;
20855;SDS011;63058;49.424;8.420;2023-03-08T02:12:03;6.60;;;4.83;;
20855;SDS011;63058;49.424;8.420;2023-03-08T02:14:32;7.20;;;4.47;;
20855;SDS011;63058;49.424;8.420;2023-03-08T02:16:58;7.83;;;5.17;;
20855;SDS011;63058;49.424;8.420;2023-03-08T02:19:42;7.50;;;5.10;;
20855;SDS011;63058;49.424;8.420;2023-03-08T02:22:13;7.93;;;5.30;;
20855;SDS011;63058;49.424;8.420;2023-03-08T02:24:40;9.17;;;5.37;;
20855;SDS011;63058;49.424;8.420;2023-03-08T02:27:13;7.90;;;5.07;;
20855;SDS011;63058;49.424;8.420;2023-03-08T02:29:50;9.70;;;5.90;;
20855;SDS011;63058;49.424;8.420;2023-03-08T02:32:15;8.57;;;5.50;;
20855;SDS011;63058;49.424;8.420;2023-03-08T02:34:42;7.80;;;5.47;;
20855;SDS011;63058;49.424;8.420;2023-03-08T02:37:08;9.40;;;5.00;;
20855;SDS011;63058;49.424;8.420;2023-03-08T02:39:33;7.77;;;4.77;;
20855;SDS011;63058;49.424;8.420;2023-03-08T02:41:59;8.00;;;5.13;;
20855;SDS011;63058;49.424;8.420;2023-03-08T02:44:25;10.20;;;5.50;;
20855;SDS011;63058;49.424;8.420;2023-03-08T02:46:50;10.33;;;6.50;;
20855;SDS011;63058;49.424;8.420;2023-03-08T02:49:16;10.13;;;5.97;;
20855;SDS011;63058;49.424;8.420;2023-03-08T02:51:42;11.30;;;6.23;;
20855;SDS011;63058;49.424;8.420;2023-03-08T02:54:08;9.87;;;5.90;;
20855;SDS011;63058;49.424;8.420;2023-03-08T02:56:34;8.60;;;6.03;;
20855;SDS011;63058;49.424;8.420;2023-03-08T02:59:01;10.20;;;7.03;;
20855;SDS011;63058;49.424;8.420;2023-03-08T03:01:28;7.63;;;4.93;;
20855;SDS011;63058;49.424;8.420;2023-03-08T03:03:54;9.60;;;5.90;;
20855;SDS011;63058;49.424;8.420;2023-03-08T03:06:19;6.63;;;4.50;;
20855;SDS011;63058;49.424;8.420;2023-03-08T03:08:45;7.97;;;5.03;;
20855;SDS011;63058;49.424;8.420;2023-03-08T03:11:12;6.63;;;4.07;;
20855;SDS011;63058;49.424;8.420;2023-03-08T03:13:39;8.40;;;4.60;;
20855;SDS011;63058;49.424;8.420;2023-03-08T03:16:06;7.03;;;4.33;;
20855;SDS011;63058;49.424;8.420;2023-03-08T03:18:33;6.67;;;4.37;;
20855;SDS011;63058;49.424;8.420;2023-03-08T03:21:05;6.37;;;4.40;;
20855;SDS011;63058;49.424;8.420;2023-03-08T03:23:33;6.63;;;4.00;;
20855;SDS011;63058;49.424;8.420;2023-03-08T03:26:15;6.50;;;4.07;;
20855;SDS011;63058;49.424;8.420;2023-03-08T03:28:45;6.23;;;4.23;;
20855;SDS011;63058;49.424;8.420;2023-03-08T03:31:17;7.97;;;5.17;;
20855;SDS011;63058;49.424;8.420;2023-03-08T03:33:49;5.97;;;4.17;;
20855;SDS011;63058;49.424;8.420;2023-03-08T03:36:22;6.50;;;4.30;;
20855;SDS011;63058;49.424;8.420;2023-03-08T03:39:05;7.67;;;4.87;;
20855;SDS011;63058;49.424;8.420;2023-03-08T03:41:43;6.17;;;4.47;;
20855;SDS011;63058;49.424;8.420;2023-03-08T03:44:09;6.67;;;4.20;;
20855;SDS011;63058;49.424;8.420;2023-03-08T03:46:35;5.67;;;4.13;;
20855;SDS011;63058;49.424;8.420;2023-03-08T03:49:03;7.60;;;4.60;;
20855;SDS011;63058;49.424;8.420;2023-03-08T03:51:29;7.70;;;4.80;;
20855;SDS011;63058;49.424;8.420;2023-03-08T03:53:58;7.70;;;4.87;;
20855;SDS011;63058;49.424;8.420;2023-03-08T03:56:25;5.67;;;4.10;;
20855;SDS011;63058;49.424;8.420;2023-03-08T03:58:54;7.03;;;4.17;;
20855;SDS011;63058;49.424;8.420;2023-03-08T04:01:25;7.43;;;4.10;;
20855;SDS011;63058;49.424;8.420;2023-03-08T04:04:05;6.27;;;4.10;;
20855;SDS011;63058;49.424;8.420;2023-03-08T04:06:37;5.70;;;4.13;;
20855;SDS011;63058;49.424;8.420;2023-03-08T04:09:04;6.87;;;4.30;;
20855;SDS011;63058;49.424;8.420;2023-03-08T04:11:37;5.97;;;4.27;;
20855;SDS011;63058;49.424;8.420;2023-03-08T04:14:11;7.23;;;4.90;;
20855;SDS011;63058;49.424;8.420;2023-03-08T04:16:57;6.87;;;4.47;;
20855;SDS011;63058;49.424;8.420;2023-03-08T04:19:25;9.37;;;5.37;;
20855;SDS011;63058;49.424;8.420;2023-03-08T04:21:54;6.43;;;4.37;;
20855;SDS011;63058;49.424;8.420;2023-03-08T04:24:26;9.17;;;4.93;;
20855;SDS011;63058;49.424;8.420;2023-03-08T04:26:54;6.73;;;4.30;;
20855;SDS011;63058;49.424;8.420;2023-03-08T04:29:23;7.17;;;4.57;;
20855;SDS011;63058;49.424;8.420;2023-03-08T04:32:00;7.87;;;5.07;;
20855;SDS011;63058;49.424;8.420;2023-03-08T04:34:26;9.53;;;4.90;;
20855;SDS011;63058;49.424;8.420;2023-03-08T04:37:05;7.00;;;5.07;;
20855;SDS011;63058;49.424;8.420;2023-03-08T04:39:33;7.63;;;5.03;;
20855;SDS011;63058;49.424;8.420;2023-03-08T04:42:08;9.67;;;5.47;;
20855;SDS011;63058;49.424;8.420;2023-03-08T04:44:50;7.57;;;5.67;;
20855;SDS011;63058;49.424;8.420;2023-03-08T04:47:20;10.27;;;6.00;;
20855;SDS011;63058;49.424;8.420;2023-03-08T04:49:51;9.77;;;6.30;;
20855;SDS011;63058;49.424;8.420;2023-03-08T04:52:24;9.50;;;5.60;;
20855;SDS011;63058;49.424;8.420;2023-03-08T04:54:55;10.67;;;6.17;;
20855;SDS011;63058;49.424;8.420;2023-03-08T04:57:27;8.17;;;5.40;;
20855;SDS011;63058;49.424;8.420;2023-03-08T05:00:13;9.17;;;5.30;;
20855;SDS011;63058;49.424;8.420;2023-03-08T05:02:39;9.30;;;5.60;;
20855;SDS011;63058;49.424;8.420;2023-03-08T05:05:20;11.57;;;6.77;;
20855;SDS011;63058;49.424;8.420;2023-03-08T05:07:46;12.30;;;5.70;;
20855;SDS011;63058;49.424;8.420;2023-03-08T05:10:13;10.90;;;6.47;;
20855;SDS011;63058;49.424;8.420;2023-03-08T05:15:36;10.53;;;6.30;;
20855;SDS011;63058;49.424;8.420;2023-03-08T05:18:02;11.60;;;7.33;;
20855;SDS011;63058;49.424;8.420;2023-03-08T05:20:58;15.03;;;7.53;;
20855;SDS011;63058;49.424;8.420;2023-03-08T05:23:26;10.90;;;6.77;;
20855;SDS011;63058;49.424;8.420;2023-03-08T05:25:55;10.50;;;6.10;;
20855;SDS011;63058;49.424;8.420;2023-03-08T05:28:23;9.60;;;6.43;;
20855;SDS011;63058;49.424;8.420;2023-03-08T05:34:04;11.90;;;7.20;;
20855;SDS011;63058;49.424;8.420;2023-03-08T05:36:39;11.17;;;7.03;;
20855;SDS011;63058;49.424;8.420;2023-03-08T05:39:07;10.07;;;7.00;;
20855;SDS011;63058;49.424;8.420;2023-03-08T05:41:36;10.80;;;6.60;;
20855;SDS011;63058;49.424;8.420;2023-03-08T05:44:15;11.07;;;7.10;;
20855;SDS011;63058;49.424;8.420;2023-03-08T05:46:48;9.53;;;5.60;;
20855;SDS011;63058;49.424;8.420;2023-03-08T05:49:34;10.43;;;6.10;;
20855;SDS011;63058;49.424;8.420;2023-03-08T05:52:19;8.47;;;5.60;;
20855;SDS011;63058;49.424;8.420;2023-03-08T05:58:30;8.03;;;5.23;;
20855;SDS011;63058;49.424;8.420;2023-03-08T06:01:07;8.70;;;5.63;;
20855;SDS011;63058;49.424;8.420;2023-03-08T06:06:36;8.33;;;5.57;;
20855;SDS011;63058;49.424;8.420;2023-03-08T06:09:20;9.00;;;5.53;;
20855;SDS011;63058;49.424;8.420;2023-03-08T06:11:49;9.47;;;5.23;;
20855;SDS011;63058;49.424;8.420;2023-03-08T06:14:14;8.87;;;5.33;;
20855;SDS011;63058;49.424;8.420;2023-03-08T06:16:43;8.77;;;5.30;;
20855;SDS011;63058;49.424;8.420;2023-03-08T06:19:19;7.87;;;5.47;;
20855;SDS011;63058;49.424;8.420;2023-03-08T06:21:51;7.63;;;5.07;;
20855;SDS011;63058;49.424;8.420;2023-03-08T06:24:20;8.33;;;5.30;;
20855;SDS011;63058;49.424;8.420;2023-03-08T06:26:47;7.17;;;5.30;;
20855;SDS011;63058;49.424;8.420;2023-03-08T06:29:17;8.50;;;5.33;;
20855;SDS011;63058;49.424;8.420;2023-03-08T06:31:51;9.17;;;6.10;;
20855;SDS011;63058;49.424;8.420;2023-03-08T06:34:23;11.47;;;6.20;;
20855;SDS011;63058;49.424;8.420;2023-03-08T06:36:51;8.83;;;6.00;;
20855;SDS011;63058;49.424;8.420;2023-03-08T06:39:23;8.30;;;5.67;;
20855;SDS011;63058;49.424;8.420;2023-03-08T06:41:58;9.07;;;5.73;;
20855;SDS011;63058;49.424;8.420;2023-03-08T06:44:29;10.23;;;5.83;;
20855;SDS011;63058;49.424;8.420;2023-03-08T06:46:55;9.87;;;6.00;;
20855;SDS011;63058;49.424;8.420;2023-03-08T06:49:24;9.33;;;5.83;;
20855;SDS011;63058;49.424;8.420;2023-03-08T06:51:49;9.80;;;6.17;;
20855;SDS011;63058;49.424;8.420;2023-03-08T06:54:24;10.97;;;6.40;;
20855;SDS011;63058;49.424;8.420;2023-03-08T06:56:53;10.90;;;6.00;;
20855;SDS011;63058;49.424;8.420;2023-03-08T06:59:27;9.63;;;6.03;;
20855;SDS011;63058;49.424;8.420;2023-03-08T07:01:55;9.27;;;5.80;;
20855;SDS011;63058;49.424;8.420;2023-03-08T07:04:23;10.93;;;6.20;;
20855;SDS011;63058;49.424;8.420;2023-03-08T07:06:53;8.43;;;4.90;;
20855;SDS011;63058;49.424;8.420;2023-03-08T07:09:23;7.80;;;5.33;;
20855;SDS011;63058;49.424;8.420;2023-03-08T07:11:51;7.07;;;5.47;;
20855;SDS011;63058;49.424;8.420;2023-03-08T07:14:20;8.50;;;5.73;;
20855;SDS011;63058;49.424;8.420;2023-03-08T07:16:57;8.53;;;5.53;;
20855;SDS011;63058;49.424;8.420;2023-03-08T07:19:32;12.67;;;5.80;;
20855;SDS011;63058;49.424;8.420;2023-03-08T07:22:19;8.67;;;5.90;;
20855;SDS011;63058;49.424;8.420;2023-03-08T07:24:48;8.90;;;6.07;;
20855;SDS011;63058;49.424;8.420;2023-03-08T07:27:19;10.90;;;6.40;;
20855;SDS011;63058;49.424;8.420;2023-03-08T07:29:48;13.03;;;6.70;;
20855;SDS011;63058;49.424;8.420;2023-03-08T07:32:19;12.47;;;7.30;;
20855;SDS011;63058;49.424;8.420;2023-03-08T07:35:02;10.83;;;7.30;;
20855;SDS011;63058;49.424;8.420;2023-03-08T07:37:39;11.70;;;6.63;;
20855;SDS011;63058;49.424;8.420;2023-03-08T07:40:11;10.37;;;6.77;;
20855;SDS011;63058;49.424;8.420;2023-03-08T07:42:48;10.17;;;6.33;;
20855;SDS011;63058;49.424;8.420;2023-03-08T07:45:13;12.87;;;5.80;;
20855;SDS011;63058;49.424;8.420;2023-03-08T07:47:50;9.80;;;5.97;;
20855;SDS011;63058;49.424;8.420;2023-03-08T07:50:16;10.10;;;6.33;;
20855;SDS011;63058;49.424;8.420;2023-03-08T07:52:48;10.40;;;6.10;;
20855;SDS011;63058;49.424;8.420;2023-03-08T07:55:22;10.13;;;6.27;;
20855;SDS011;63058;49.424;8.420;2023-03-08T07:57:49;11.20;;;6.50;;
20855;SDS011;63058;49.424;8.420;2023-03-08T08:00:18;10.30;;;5.90;;
20855;SDS011;63058;49.424;8.420;2023-03-08T08:02:52;10.40;;;6.30;;
20855;SDS011;63058;49.424;8.420;2023-03-08T08:05:55;11.57;;;6.57;;
20855;SDS011;63058;49.424;8.420;2023-03-08T08:08:47;11.73;;;6.97;;
20855;SDS011;63058;49.424;8.420;2023-03-08T08:11:25;9.90;;;6.20;;
20855;SDS011;63058;49.424;8.420;2023-03-08T08:13:51;12.23;;;7.73;;
20855;SDS011;63058;49.424;8.420;2023-03-08T08:16:22;12.90;;;7.60;;
20855;SDS011;63058;49.424;8.420;2023-03-08T08:19:03;11.03;;;7.33;;
20855;SDS011;63058;49.424;8.420;2023-03-08T08:21:43;11.77;;;7.23;;
20855;SDS011;63058;49.424;8.420;2023-03-08T08:24:09;12.63;;;8.00;;
20855;SDS011;63058;49.424;8.420;2023-03-08T08:26:38;13.23;;;7.80;;
20855;SDS011;63058;49.424;8.420;2023-03-08T08:29:06;11.27;;;7.17;;
20855;SDS011;63058;49.424;8.420;2023-03-08T08:31:43;12.07;;;7.60;;
20855;SDS011;63058;49.424;8.420;2023-03-08T08:34:18;10.77;;;6.63;;
20855;SDS011;63058;49.424;8.420;2023-03-08T08:36:57;10.50;;;6.70;;
20855;SDS011;63058;49.424;8.420;2023-03-08T08:39:28;8.87;;;6.23;;
20855;SDS011;63058;49.424;8.420;2023-03-08T08:41:59;11.47;;;7.00;;
20855;SDS011;63058;49.424;8.420;2023-03-08T08:44:28;10.27;;;6.53;;
20855;SDS011;63058;49.424;8.420;2023-03-08T08:47:01;11.00;;;7.30;;
20855;SDS011;63058;49.424;8.420;2023-03-08T08:49:33;14.17;;;8.77;;
20855;SDS011;63058;49.424;8.420;2023-03-08T08:52:02;11.63;;;7.83;;
20855;SDS011;63058;49.424;8.420;2023-03-08T08:54:34;10.50;;;6.83;;
20855;SDS011;63058;49.424;8.420;2023-03-08T08:57:12;9.93;;;6.87;;
20855;SDS011;63058;49.424;8.420;2023-03-08T08:59:46;10.73;;;7.13;;
20855;SDS011;63058;49.424;8.420;2023-03-08T09:02:15;11.20;;;7.00;;
20855;SDS011;63058;49.424;8.420;2023-03-08T09:04:41;14.20;;;8.87;;
20855;SDS011;63058;49.424;8.420;2023-03-08T09:07:09;11.63;;;7.70;;
20855;SDS011;63058;49.424;8.420;2023-03-08T09:09:35;11.20;;;7.80;;
20855;SDS011;63058;49.424;8.420;2023-03-08T09:12:12;11.70;;;7.70;;
20855;SDS011;63058;49.424;8.420;2023-03-08T09:14:48;10.70;;;7.17;;
20855;SDS011;63058;49.424;8.420;2023-03-08T09:20:10;12.00;;;7.30;;
20855;SDS011;63058;49.424;8.420;2023-03-08T09:22:44;10.63;;;7.47;;
20855;SDS011;63058;49.424;8.420;2023-03-08T09:25:10;12.10;;;7.33;;
20855;SDS011;63058;49.424;8.420;2023-03-08T09:27:39;11.50;;;8.13;;
20855;SDS011;63058;49.424;8.420;2023-03-08T09:30:22;10.40;;;7.53;;
20855;SDS011;63058;49.424;8.420;2023-03-08T09:32:57;10.70;;;6.83;;
20855;SDS011;63058;49.424;8.420;2023-03-08T09:35:31;11.17;;;6.80;;
20855;SDS011;63058;49.424;8.420;2023-03-08T09:56:02;9.93;;;6.70;;
20855;SDS011;63058;49.424;8.420;2023-03-08T10:02:09;9.93;;;6.47;;
20855;SDS011;63058;49.424;8.420;2023-03-08T10:10:22;10.10;;;5.40;;
20855;SDS011;63058;49.424;8.420;2023-03-08T10:19:02;8.80;;;5.93;;
20855;SDS011;63058;49.424;8.420;2023-03-08T10:21:46;8.60;;;5.90;;
20855;SDS011;63058;49.424;8.420;2023-03-08T10:24:23;8.30;;;6.40;;
20855;SDS011;63058;49.424;8.420;2023-03-08T10:27:23;9.57;;;6.30;;
20855;SDS011;63058;49.424;8.420;2023-03-08T10:29:55;9.37;;;5.87;;
20855;SDS011;63058;49.424;8.420;2023-03-08T10:32:45;8.20;;;6.07;;
20855;SDS011;63058;49.424;8.420;2023-03-08T10:38:26;10.07;;;6.50;;
20855;SDS011;63058;49.424;8.420;2023-03-08T10:41:21;8.40;;;5.57;;
20855;SDS011;63058;49.424;8.420;2023-03-08T10:44:02;8.63;;;5.93;;
20855;SDS011;63058;49.424;8.420;2023-03-08T10:47:22;7.97;;;5.67;;
20855;SDS011;63058;49.424;8.420;2023-03-08T10:53:38;9.57;;;6.03;;
20855;SDS011;63058;49.424;8.420;2023-03-08T10:56:26;9.23;;;5.97;;
20855;SDS011;63058;49.424;8.420;2023-03-08T11:02:07;9.57;;;6.87;;
20855;SDS011;63058;49.424;8.420;2023-03-08T11:11:07;7.63;;;5.57;;
20855;SDS011;63058;49.424;8.420;2023-03-08T11:13:42;9.30;;;5.50;;
20855;SDS011;63058;49.424;8.420;2023-03-08T11:38:30;9.77;;;6.50;;
20855;SDS011;63058;49.424;8.420;2023-03-08T11:47:32;9.83;;;6.53;;
20855;SDS011;63058;49.424;8.420;2023-03-08T11:53:24;11.10;;;6.97;;
20855;SDS011;63058;49.424;8.420;2023-03-08T12:05:27;12.43;;;8.73;;
20855;SDS011;63058;49.424;8.420;2023-03-08T12:08:33;11.77;;;7.80;;
20855;SDS011;63058;49.424;8.420;2023-03-08T12:12:10;11.43;;;7.90;;
20855;SDS011;63058;49.424;8.420;2023-03-08T12:15:14;10.00;;;7.40;;
20855;SDS011;63058;49.424;8.420;2023-03-08T12:34:28;13.30;;;8.30;;
20855;SDS011;63058;49.424;8.420;2023-03-08T12:37:21;10.80;;;7.63;;
20855;SDS011;63058;49.424;8.420;2023-03-08T12:40:02;11.07;;;7.47;;
20855;SDS011;63058;49.424;8.420;2023-03-08T12:43:13;9.10;;;6.93;;
20855;SDS011;63058;49.424;8.420;2023-03-08T12:51:31;7.80;;;6.10;;
20855;SDS011;63058;49.424;8.420;2023-03-08T12:54:19;9.10;;;6.87;;
20855;SDS011;63058;49.424;8.420;2023-03-08T12:57:02;11.60;;;7.70;;
20855;SDS011;63058;49.424;8.420;2023-03-08T13:13:22;8.10;;;5.90;;
20855;SDS011;63058;49.424;8.420;2023-03-08T13:29:14;4.67;;;3.00;;
20855;SDS011;63058;49.424;8.420;2023-03-08T13:32:10;4.53;;;3.23;;
20855;SDS011;63058;49.424;8.420;2023-03-08T13:34:40;5.63;;;3.67;;
20855;SDS011;63058;49.424;8.420;2023-03-08T13:37:18;3.78;;;2.90;;
20855;SDS011;63058;49.424;8.420;2023-03-08T13:39:51;5.97;;;3.23;;
20855;SDS011;63058;49.424;8.420;2023-03-08T13:42:31;3.03;;;2.53;;
20855;SDS011;63058;49.424;8.420;2023-03-08T13:45:18;3.47;;;2.57;;
20855;SDS011;63058;49.424;8.420;2023-03-08T13:47:47;2.85;;;2.00;;
20855;SDS011;63058;49.424;8.420;2023-03-08T13:52:56;2.53;;;1.90;;
20855;SDS011;63058;49.424;8.420;2023-03-08T13:58:52;2.75;;;2.10;;
20855;SDS011;63058;49.424;8.420;2023-03-08T14:01:22;2.63;;;1.92;;
20855;SDS011;63058;49.424;8.420;2023-03-08T14:03:50;3.05;;;1.50;;
20855;SDS011;63058;49.424;8.420;2023-03-08T14:08:53;2.58;;;1.63;;
20855;SDS011;63058;49.424;8.420;2023-03-08T14:11:34;3.47;;;1.70;;
20855;SDS011;63058;49.424;8.420;2023-03-08T14:14:11;2.80;;;1.20;;
20855;SDS011;63058;49.424;8.420;2023-03-08T14:16:52;2.75;;;1.40;;
20855;SDS011;63058;49.424;8.420;2023-03-08T14:22:20;1.42;;;1.00;;
20855;SDS011;63058;49.424;8.420;2023-03-08T14:24:49;2.33;;;1.08;;
20855;SDS011;63058;49.424;8.420;2023-03-08T14:27:47;1.88;;;1.40;;
20855;SDS011;63058;49.424;8.420;2023-03-08T14:30:31;1.67;;;1.20;;
20855;SDS011;63058;49.424;8.420;2023-03-08T14:35:52;3.40;;;1.20;;
20855;SDS011;63058;49.424;8.420;2023-03-08T14:38:32;2.38;;;1.33;;
20855;SDS011;63058;49.424;8.420;2023-03-08T14:41:14;3.53;;;1.48;;
20855;SDS011;63058;49.424;8.420;2023-03-08T14:43:46;2.63;;;1.30;;
20855;SDS011;63058;49.424;8.420;2023-03-08T14:46:19;1.15;;;0.90;;
20855;SDS011;63058;49.424;8.420;2023-03-08T14:49:25;1.52;;;1.08;;
20855;SDS011;63058;49.424;8.420;2023-03-08T14:52:17;1.33;;;1.00;;
20855;SDS011;63058;49.424;8.420;2023-03-08T14:55:03;1.17;;;0.90;;
20855;SDS011;63058;49.424;8.420;2023-03-08T14:57:52;1.30;;;1.00;;
20855;SDS011;63058;49.424;8.420;2023-03-08T15:00:48;1.77;;;1.15;;
20855;SDS011;63058;49.424;8.420;2023-03-08T15:03:28;1.30;;;1.10;;
20855;SDS011;63058;49.424;8.420;2023-03-08T15:05:59;1.08;;;0.85;;
20855;SDS011;63058;49.424;8.420;2023-03-08T15:08:57;1.20;;;0.95;;
20855;SDS011;63058;49.424;8.420;2023-03-08T15:14:27;2.30;;;1.10;;
20855;SDS011;63058;49.424;8.420;2023-03-08T15:16:55;1.27;;;0.90;;
20855;SDS011;63058;49.424;8.420;2023-03-08T15:19:22;2.25;;;1.40;;
20855;SDS011;63058;49.424;8.420;2023-03-08T15:22:12;2.08;;;1.20;;
20855;SDS011;63058;49.424;8.420;2023-03-08T15:25:06;1.73;;;1.20;;
20855;SDS011;63058;49.424;8.420;2023-03-08T15:27:59;1.40;;;1.20;;
20855;SDS011;63058;49.424;8.420;2023-03-08T15:30:26;1.50;;;1.02;;
20855;SDS011;63058;49.424;8.420;2023-03-08T15:32:56;2.20;;;1.30;;
20855;SDS011;63058;49.424;8.420;2023-03-08T15:35:25;2.10;;;1.23;;
20855;SDS011;63058;49.424;8.420;2023-03-08T15:37:51;1.58;;;1.10;;
20855;SDS011;63058;49.424;8.420;2023-03-08T15:40:30;1.50;;;1.10;;
20855;SDS011;63058;49.424;8.420;2023-03-08T15:42:57;1.75;;;1.30;;
20855;SDS011;63058;49.424;8.420;2023-03-08T15:45:25;2.38;;;1.55;;
20855;SDS011;63058;49.424;8.420;2023-03-08T15:47:57;3.45;;;1.90;;
20855;SDS011;63058;49.424;8.420;2023-03-08T15:50:45;1.67;;;1.20;;
20855;SDS011;63058;49.424;8.420;2023-03-08T15:53:11;2.17;;;1.60;;
20855;SDS011;63058;49.424;8.420;2023-03-08T15:55:43;1.48;;;1.20;;
20855;SDS011;63058;49.424;8.420;2023-03-08T15:58:18;1.95;;;1.15;;
20855;SDS011;63058;49.424;8.420;2023-03-08T16:00:44;3.55;;;1.40;;
20855;SDS011;63058;49.424;8.420;2023-03-08T16:03:11;2.25;;;1.13;;
20855;SDS011;63058;49.424;8.420;2023-03-08T16:06:01;2.95;;;1.35;;
20855;SDS011;63058;49.424;8.420;2023-03-08T16:15:42;2.22;;;1.00;;
20855;SDS011;63058;49.424;8.420;2023-03-08T16:18:29;2.80;;;1.20;;
20855;SDS011;63058;49.424;8.420;2023-03-08T16:21:40;1.83;;;1.00;;
20855;SDS011;63058;49.424;8.420;2023-03-08T16:24:09;3.40;;;1.23;;
20855;SDS011;63058;49.424;8.420;2023-03-08T16:37:37;2.05;;;0.70;;
20855;SDS011;63058;49.424;8.420;2023-03-08T16:40:40;0.70;;;0.50;;
20855;SDS011;63058;49.424;8.420;2023-03-08T16:44:05;1.58;;;0.63;;
20855;SDS011;63058;49.424;8.420;2023-03-08T16:52:57;1.10;;;0.70;;
20855;SDS011;63058;49.424;8.420;2023-03-08T16:55:34;1.08;;;0.60;;
20855;SDS011;63058;49.424;8.420;2023-03-08T16:58:21;1.25;;;0.70;;
20855;SDS011;63058;49.424;8.420;2023-03-08T17:01:28;1.50;;;0.77;;
20855;SDS011;63058;49.424;8.420;2023-03-08T17:03:59;3.33;;;1.02;;
20855;SDS011;63058;49.424;8.420;2023-03-08T17:06:28;2.40;;;1.33;;
20855;SDS011;63058;49.424;8.420;2023-03-08T17:09:01;1.58;;;1.10;;
20855;SDS011;63058;49.424;8.420;2023-03-08T17:11:33;1.73;;;1.10;;
20855;SDS011;63058;49.424;8.420;2023-03-08T17:14:00;2.22;;;1.05;;
20855;SDS011;63058;49.424;8.420;2023-03-08T17:16:29;1.23;;;0.93;;
20855;SDS011;63058;49.424;8.420;2023-03-08T17:18:57;2.10;;;0.88;;
20855;SDS011;63058;49.424;8.420;2023-03-08T17:21:25;2.42;;;1.55;;
20855;SDS011;63058;49.424;8.420;2023-03-08T17:23:58;2.88;;;1.20;;
20855;SDS011;63058;49.424;8.420;2023-03-08T17:26:29;1.83;;;1.10;;
20855;SDS011;63058;49.424;8.420;2023-03-08T17:29:13;1.08;;;0.80;;
20855;SDS011;63058;49.424;8.420;2023-03-08T17:31:39;0.70;;;0.60;;
20855;SDS011;63058;49.424;8.420;2023-03-08T17:34:05;1.00;;;0.70;;
20855;SDS011;63058;49.424;8.420;2023-03-08T17:36:30;1.45;;;0.90;;
20855;SDS011;63058;49.424;8.420;2023-03-08T17:38:59;1.30;;;0.77;;
20855;SDS011;63058;49.424;8.420;2023-03-08T17:41:25;0.80;;;0.60;;
20855;SDS011;63058;49.424;8.420;2023-03-08T17:43:51;2.25;;;0.50;;
20855;SDS011;63058;49.424;8.420;2023-03-08T17:46:21;1.83;;;0.82;;
20855;SDS011;63058;49.424;8.420;2023-03-08T17:48:53;1.02;;;0.90;;
20855;SDS011;63058;49.424;8.420;2023-03-08T17:51:23;2.08;;;1.20;;
20855;SDS011;63058;49.424;8.420;2023-03-08T17:53:51;1.77;;;1.20;;
20855;SDS011;63058;49.424;8.420;2023-03-08T17:56:20;2.15;;;0.88;;
20855;SDS011;63058;49.424;8.420;2023-03-08T17:58:49;1.45;;;0.90;;
20855;SDS011;63058;49.424;8.420;2023-03-08T18:01:19;1.37;;;1.00;;
20855;SDS011;63058;49.424;8.420;2023-03-08T18:03:47;0.67;;;0.50;;
20855;SDS011;63058;49.424;8.420;2023-03-08T18:06:27;2.75;;;1.40;;
20855;SDS011;63058;49.424;8.420;2023-03-08T18:09:21;2.95;;;1.73;;
20855;SDS011;63058;49.424;8.420;2023-03-08T18:11:50;5.13;;;2.13;;
20855;SDS011;63058;49.424;8.420;2023-03-08T18:14:25;4.13;;;2.30;;
20855;SDS011;63058;49.424;8.420;2023-03-08T18:16:53;4.15;;;2.17;;
20855;SDS011;63058;49.424;8.420;2023-03-08T18:19:22;4.53;;;2.00;;
20855;SDS011;63058;49.424;8.420;2023-03-08T18:22:03;3.40;;;2.33;;
20855;SDS011;63058;49.424;8.420;2023-03-08T18:25:17;4.28;;;2.08;;
20855;SDS011;63058;49.424;8.420;2023-03-08T18:27:58;3.77;;;2.47;;
20855;SDS011;63058;49.424;8.420;2023-03-08T18:33:42;5.25;;;2.83;;
20855;SDS011;63058;49.424;8.420;2023-03-08T18:36:17;5.20;;;2.40;;
20855;SDS011;63058;49.424;8.420;2023-03-08T18:38:59;3.97;;;2.67;;
20855;SDS011;63058;49.424;8.420;2023-03-08T18:41:28;5.80;;;3.27;;
20855;SDS011;63058;49.424;8.420;2023-03-08T18:43:54;5.60;;;2.80;;
20855;SDS011;63058;49.424;8.420;2023-03-08T18:46:27;4.80;;;2.83;;
20855;SDS011;63058;49.424;8.420;2023-03-08T18:48:57;6.80;;;3.00;;
20855;SDS011;63058;49.424;8.420;2023-03-08T18:51:28;9.20;;;2.83;;